createdAt,value
2017-12-17T00:00:44.269Z,1010.35
2017-12-17T00:01:44.247Z,1010.44
2017-12-17T00:02:44.221Z,1010.39
2017-12-17T00:03:44.201Z,1010.43
2017-12-17T00:04:44.177Z,1010.41
2017-12-17T00:05:44.151Z,1010.44
2017-12-17T00:06:44.130Z,1010.45
2017-12-17T00:07:44.108Z,1010.45
2017-12-17T00:08:44.083Z,1010.40
2017-12-17T00:09:44.062Z,1010.43
2017-12-17T00:10:44.036Z,1010.42
2017-12-17T00:11:44.015Z,1010.43
2017-12-17T00:12:43.988Z,1010.45
2017-12-17T00:13:43.965Z,1010.47
2017-12-17T00:14:43.941Z,1010.45
2017-12-17T00:15:43.933Z,1010.49
2017-12-17T00:16:43.896Z,1010.46
2017-12-17T00:17:43.869Z,1010.49
2017-12-17T00:18:43.912Z,1010.48
2017-12-17T00:19:43.819Z,1010.47
2017-12-17T00:20:43.805Z,1010.45
2017-12-17T00:21:43.784Z,1010.46
2017-12-17T00:22:43.749Z,1010.48
2017-12-17T00:23:43.724Z,1010.48
2017-12-17T00:24:43.704Z,1010.44
2017-12-17T00:25:43.685Z,1010.44
2017-12-17T00:26:43.653Z,1010.44
2017-12-17T00:27:43.634Z,1010.44
2017-12-17T00:28:43.605Z,1010.46
2017-12-17T00:29:43.582Z,1010.46
2017-12-17T00:30:43.557Z,1010.40
2017-12-17T00:31:43.536Z,1010.44
2017-12-17T00:32:43.512Z,1010.43
2017-12-17T00:33:43.488Z,1010.45
2017-12-17T00:34:43.462Z,1010.44
2017-12-17T00:35:43.437Z,1010.48
2017-12-17T00:36:43.415Z,1010.46
2017-12-17T00:37:43.396Z,1010.45
2017-12-17T00:38:43.368Z,1010.41
2017-12-17T00:39:43.341Z,1010.46
2017-12-17T00:40:43.321Z,1010.41
2017-12-17T00:41:43.294Z,1010.41
2017-12-17T00:42:43.271Z,1010.45
2017-12-17T00:43:43.246Z,1010.43
2017-12-17T00:44:43.229Z,1010.47
2017-12-17T00:45:43.202Z,1010.43
2017-12-17T00:46:43.173Z,1010.47
2017-12-17T00:47:43.150Z,1010.46
2017-12-17T00:48:43.126Z,1010.49
2017-12-17T00:49:43.104Z,1010.49
2017-12-17T00:50:43.081Z,1010.50
2017-12-17T00:51:43.067Z,1010.55
2017-12-17T00:52:43.029Z,1010.54
2017-12-17T00:53:43.021Z,1010.59
2017-12-17T00:54:43.031Z,1010.65
2017-12-17T00:55:42.959Z,1010.59
2017-12-17T00:56:42.931Z,1010.59
2017-12-17T00:57:42.907Z,1010.64
2017-12-17T00:58:42.881Z,1010.69
2017-12-17T00:59:42.858Z,1010.70
2017-12-17T01:00:42.844Z,1010.67
2017-12-17T01:01:42.810Z,1010.72
2017-12-17T01:02:42.788Z,1010.70
2017-12-17T01:03:42.761Z,1010.73
2017-12-17T01:04:42.748Z,1010.77
2017-12-17T01:05:42.720Z,1010.78
2017-12-17T01:06:42.697Z,1010.76
2017-12-17T01:07:42.667Z,1010.82
2017-12-17T01:08:42.640Z,1010.81
2017-12-17T01:09:42.618Z,1010.84
2017-12-17T01:10:42.589Z,1010.85
2017-12-17T01:11:42.566Z,1010.83
2017-12-17T01:12:42.549Z,1010.86
2017-12-17T01:13:42.543Z,1010.88
2017-12-17T01:14:42.492Z,1010.86
2017-12-17T01:15:42.468Z,1010.83
2017-12-17T01:16:42.460Z,1010.86
2017-12-17T01:17:42.418Z,1010.85
2017-12-17T01:18:42.396Z,1010.86
2017-12-17T01:19:42.405Z,1010.84
2017-12-17T01:20:42.346Z,1010.83
2017-12-17T01:21:42.326Z,1010.90
2017-12-17T01:22:42.299Z,1010.91
2017-12-17T01:23:42.277Z,1010.93
2017-12-17T01:24:42.299Z,1010.94
2017-12-17T01:25:42.226Z,1010.96
2017-12-17T01:26:42.200Z,1010.99
2017-12-17T01:27:42.187Z,1011.01
2017-12-17T01:28:42.151Z,1011.04
2017-12-17T01:29:42.126Z,1011.06
2017-12-17T01:30:42.104Z,1011.10
2017-12-17T01:31:42.087Z,1011.10
2017-12-17T01:32:42.056Z,1011.15
2017-12-17T01:33:42.031Z,1011.11
2017-12-17T01:34:42.005Z,1011.10
2017-12-17T01:35:41.980Z,1011.15
2017-12-17T01:36:41.956Z,1011.15
2017-12-17T01:37:41.933Z,1011.12
2017-12-17T01:38:41.906Z,1011.15
2017-12-17T01:39:41.882Z,1011.16
2017-12-17T01:40:41.858Z,1011.15
2017-12-17T01:41:41.832Z,1011.19
2017-12-17T01:42:41.807Z,1011.20
2017-12-17T01:43:41.785Z,1011.21
2017-12-17T01:44:41.761Z,1011.26
2017-12-17T01:45:41.737Z,1011.25
2017-12-17T01:46:41.712Z,1011.27
2017-12-17T01:47:41.687Z,1011.33
2017-12-17T01:48:41.664Z,1011.28
2017-12-17T01:49:41.716Z,1011.30
2017-12-17T01:50:41.622Z,1011.30
2017-12-17T01:51:41.591Z,1011.26
2017-12-17T01:52:41.583Z,1011.28
2017-12-17T01:53:41.540Z,1011.30
2017-12-17T01:54:41.516Z,1011.31
2017-12-17T01:55:41.520Z,1011.34
2017-12-17T01:56:41.487Z,1011.34
2017-12-17T01:57:41.443Z,1011.37
2017-12-17T01:58:41.418Z,1011.37
2017-12-17T01:59:41.392Z,1011.44
2017-12-17T02:00:41.369Z,1011.42
2017-12-17T02:01:41.345Z,1011.39
2017-12-17T02:02:41.320Z,1011.39
2017-12-17T02:03:41.294Z,1011.47
2017-12-17T02:04:41.273Z,1011.44
2017-12-17T02:05:41.249Z,1011.40
2017-12-17T02:06:41.229Z,1011.47
2017-12-17T02:07:41.204Z,1011.50
2017-12-17T02:08:41.171Z,1011.50
2017-12-17T02:09:41.149Z,1011.49
2017-12-17T02:10:41.128Z,1011.54
2017-12-17T02:11:41.099Z,1011.50
2017-12-17T02:12:41.078Z,1011.54
2017-12-17T02:13:41.050Z,1011.50
2017-12-17T02:14:41.028Z,1011.51
2017-12-17T02:15:41.000Z,1011.53
2017-12-17T02:16:40.976Z,1011.53
2017-12-17T02:17:40.957Z,1011.52
2017-12-17T02:18:40.929Z,1011.53
2017-12-17T02:19:40.907Z,1011.50
2017-12-17T02:20:40.877Z,1011.49
2017-12-17T02:21:40.857Z,1011.56
2017-12-17T02:22:40.830Z,1011.55
2017-12-17T02:23:40.808Z,1011.56
2017-12-17T02:24:40.778Z,1011.59
2017-12-17T02:25:40.839Z,1011.60
2017-12-17T02:26:40.733Z,1011.57
2017-12-17T02:27:40.707Z,1011.58
2017-12-17T02:28:40.753Z,1011.55
2017-12-17T02:29:40.674Z,1011.58
2017-12-17T02:30:40.634Z,1011.56
2017-12-17T02:31:40.622Z,1011.57
2017-12-17T02:32:40.586Z,1011.61
2017-12-17T02:33:40.561Z,1011.59
2017-12-17T02:34:40.541Z,1011.60
2017-12-17T02:35:40.515Z,1011.61
2017-12-17T02:36:40.488Z,1011.61
2017-12-17T02:37:40.464Z,1011.62
2017-12-17T02:38:40.437Z,1011.63
2017-12-17T02:39:40.415Z,1011.60
2017-12-17T02:40:40.393Z,1011.64
2017-12-17T02:41:40.377Z,1011.64
2017-12-17T02:42:40.339Z,1011.64
2017-12-17T02:43:40.316Z,1011.68
2017-12-17T02:44:40.294Z,1011.65
2017-12-17T02:45:40.268Z,1011.69
2017-12-17T02:46:40.264Z,1011.68
2017-12-17T02:47:40.224Z,1011.74
2017-12-17T02:48:40.194Z,1011.72
2017-12-17T02:49:40.181Z,1011.75
2017-12-17T02:50:40.249Z,1011.80
2017-12-17T02:51:40.129Z,1011.72
2017-12-17T02:52:40.096Z,1011.71
2017-12-17T02:53:40.130Z,1011.77
2017-12-17T02:54:40.052Z,1011.71
2017-12-17T02:55:40.024Z,1011.77
2017-12-17T02:56:40.003Z,1011.72
2017-12-17T02:57:39.983Z,1011.74
2017-12-17T02:58:39.951Z,1011.76
2017-12-17T02:59:39.931Z,1011.79
2017-12-17T03:00:39.903Z,1011.77
2017-12-17T03:01:39.895Z,1011.77
2017-12-17T03:02:39.855Z,1011.77
2017-12-17T03:03:39.833Z,1011.76
2017-12-17T03:04:39.820Z,1011.80
2017-12-17T03:05:39.784Z,1011.84
2017-12-17T03:06:39.764Z,1011.80
2017-12-17T03:07:39.740Z,1011.86
2017-12-17T03:08:39.711Z,1011.83
2017-12-17T03:09:39.689Z,1011.89
2017-12-17T03:10:39.663Z,1011.88
2017-12-17T03:11:39.643Z,1011.90
2017-12-17T03:12:39.616Z,1011.90
2017-12-17T03:13:39.590Z,1011.91
2017-12-17T03:14:39.570Z,1011.91
2017-12-17T03:15:39.544Z,1011.92
2017-12-17T03:16:39.520Z,1011.92
2017-12-17T03:17:39.495Z,1011.92
2017-12-17T03:18:39.470Z,1011.91
2017-12-17T03:19:39.450Z,1011.94
2017-12-17T03:20:39.418Z,1011.94
2017-12-17T03:21:39.394Z,1011.91
2017-12-17T03:22:39.374Z,1011.96
2017-12-17T03:23:39.346Z,1011.99
2017-12-17T03:24:39.320Z,1011.97
2017-12-17T03:25:39.298Z,1012.00
2017-12-17T03:26:39.340Z,1012.06
2017-12-17T03:27:39.246Z,1012.04
2017-12-17T03:28:39.227Z,1012.08
2017-12-17T03:29:39.201Z,1012.09
2017-12-17T03:30:39.186Z,1012.08
2017-12-17T03:31:39.150Z,1012.07
2017-12-17T03:32:39.182Z,1012.11
2017-12-17T03:33:39.102Z,1012.10
2017-12-17T03:34:39.076Z,1012.18
2017-12-17T03:35:39.050Z,1012.17
2017-12-17T03:36:39.030Z,1012.19
2017-12-17T03:37:39.006Z,1012.22
2017-12-17T03:38:38.978Z,1012.26
2017-12-17T03:39:38.964Z,1012.26
2017-12-17T03:40:38.928Z,1012.24
2017-12-17T03:41:38.909Z,1012.29
2017-12-17T03:42:38.881Z,1012.30
2017-12-17T03:43:38.863Z,1012.26
2017-12-17T03:44:38.834Z,1012.29
2017-12-17T03:45:38.808Z,1012.31
2017-12-17T03:46:38.784Z,1012.31
2017-12-17T03:47:38.757Z,1012.32
2017-12-17T03:48:38.735Z,1012.31
2017-12-17T03:49:38.711Z,1012.33
2017-12-17T03:50:38.688Z,1012.33
2017-12-17T03:51:38.660Z,1012.34
2017-12-17T03:52:38.638Z,1012.34
2017-12-17T03:53:38.625Z,1012.35
2017-12-17T03:54:38.587Z,1012.32
2017-12-17T03:55:38.596Z,1012.36
2017-12-17T03:56:38.535Z,1012.35
2017-12-17T03:57:38.513Z,1012.34
2017-12-17T03:58:38.485Z,1012.34
2017-12-17T03:59:38.478Z,1012.41
2017-12-17T04:00:38.438Z,1012.38
2017-12-17T04:01:38.413Z,1012.39
2017-12-17T04:02:38.400Z,1012.40
2017-12-17T04:03:38.365Z,1012.36
2017-12-17T04:04:38.342Z,1012.41
2017-12-17T04:05:38.317Z,1012.40
2017-12-17T04:06:38.290Z,1012.41
2017-12-17T04:07:38.264Z,1012.46
2017-12-17T04:08:38.242Z,1012.46
2017-12-17T04:09:38.215Z,1012.44
2017-12-17T04:10:38.192Z,1012.42
2017-12-17T04:11:38.174Z,1012.48
2017-12-17T04:12:38.144Z,1012.47
2017-12-17T04:13:38.121Z,1012.48
2017-12-17T04:14:38.093Z,1012.52
2017-12-17T04:15:38.071Z,1012.59
2017-12-17T04:16:38.044Z,1012.55
2017-12-17T04:17:38.026Z,1012.58
2017-12-17T04:18:37.995Z,1012.60
2017-12-17T04:19:37.972Z,1012.61
2017-12-17T04:20:37.946Z,1012.63
2017-12-17T04:21:37.922Z,1012.65
2017-12-17T04:22:37.899Z,1012.64
2017-12-17T04:23:37.878Z,1012.64
2017-12-17T04:24:37.848Z,1012.65
2017-12-17T04:25:37.824Z,1012.66
2017-12-17T04:26:37.798Z,1012.67
2017-12-17T04:27:37.874Z,1012.68
2017-12-17T04:28:37.754Z,1012.62
2017-12-17T04:29:37.729Z,1012.66
2017-12-17T04:30:37.727Z,1012.69
2017-12-17T04:31:37.678Z,1012.65
2017-12-17T04:32:37.652Z,1012.71
2017-12-17T04:33:37.647Z,1012.72
2017-12-17T04:34:37.603Z,1012.70
2017-12-17T04:35:37.580Z,1012.70
2017-12-17T04:36:37.557Z,1012.73
2017-12-17T04:37:37.536Z,1012.69
2017-12-17T04:38:37.611Z,1012.72
2017-12-17T04:39:37.482Z,1012.73
2017-12-17T04:40:37.459Z,1012.72
2017-12-17T04:41:37.484Z,1012.73
2017-12-17T04:42:37.406Z,1012.75
2017-12-17T04:43:37.382Z,1012.73
2017-12-17T04:44:37.359Z,1012.79
2017-12-17T04:45:37.345Z,1012.75
2017-12-17T04:46:37.310Z,1012.78
2017-12-17T04:47:37.290Z,1012.80
2017-12-17T04:48:37.262Z,1012.84
2017-12-17T04:49:37.239Z,1012.90
2017-12-17T04:50:37.216Z,1012.84
2017-12-17T04:51:37.184Z,1012.88
2017-12-17T04:52:37.163Z,1012.89
2017-12-17T04:53:37.141Z,1012.93
2017-12-17T04:54:37.114Z,1012.92
2017-12-17T04:55:37.086Z,1012.95
2017-12-17T04:56:37.063Z,1012.98
2017-12-17T04:57:37.039Z,1012.93
2017-12-17T04:58:37.013Z,1012.99
2017-12-17T04:59:36.994Z,1012.97
2017-12-17T05:00:37.071Z,1013.01
2017-12-17T05:01:36.943Z,1013.00
2017-12-17T05:02:36.916Z,1013.03
2017-12-17T05:03:37.007Z,1013.08
2017-12-17T05:04:36.868Z,1013.08
2017-12-17T05:05:36.842Z,1013.04
2017-12-17T05:06:36.828Z,1013.09
2017-12-17T05:07:36.795Z,1013.08
2017-12-17T05:08:36.773Z,1013.06
2017-12-17T05:09:36.744Z,1013.10
2017-12-17T05:10:36.729Z,1013.09
2017-12-17T05:11:36.696Z,1013.08
2017-12-17T05:12:36.680Z,1013.09
2017-12-17T05:13:36.650Z,1013.10
2017-12-17T05:14:36.621Z,1013.10
2017-12-17T05:15:36.603Z,1013.10
2017-12-17T05:16:36.573Z,1013.12
2017-12-17T05:17:36.560Z,1013.17
2017-12-17T05:18:36.528Z,1013.14
2017-12-17T05:19:36.501Z,1013.16
2017-12-17T05:20:36.475Z,1013.14
2017-12-17T05:21:36.449Z,1013.14
2017-12-17T05:22:36.424Z,1013.18
2017-12-17T05:23:36.400Z,1013.16
2017-12-17T05:24:36.387Z,1013.21
2017-12-17T05:25:36.353Z,1013.20
2017-12-17T05:26:36.333Z,1013.25
2017-12-17T05:27:36.303Z,1013.23
2017-12-17T05:28:36.287Z,1013.25
2017-12-17T05:29:36.255Z,1013.23
2017-12-17T05:30:36.230Z,1013.25
2017-12-17T05:31:36.204Z,1013.29
2017-12-17T05:32:36.179Z,1013.26
2017-12-17T05:33:36.176Z,1013.23
2017-12-17T05:34:36.130Z,1013.23
2017-12-17T05:35:36.109Z,1013.28
2017-12-17T05:36:36.241Z,1013.29
2017-12-17T05:37:36.058Z,1013.26
2017-12-17T05:38:36.032Z,1013.27
2017-12-17T05:39:36.113Z,1013.27
2017-12-17T05:40:35.983Z,1013.25
2017-12-17T05:41:35.958Z,1013.30
2017-12-17T05:42:35.934Z,1013.27
2017-12-17T05:43:35.907Z,1013.33
2017-12-17T05:44:35.882Z,1013.27
2017-12-17T05:45:35.862Z,1013.27
2017-12-17T05:46:35.832Z,1013.27
2017-12-17T05:47:35.810Z,1013.36
2017-12-17T05:48:35.788Z,1013.30
2017-12-17T05:49:35.758Z,1013.31
2017-12-17T05:50:35.736Z,1013.33
2017-12-17T05:51:35.709Z,1013.40
2017-12-17T05:52:35.685Z,1013.34
2017-12-17T05:53:35.661Z,1013.42
2017-12-17T05:54:35.636Z,1013.42
2017-12-17T05:55:35.617Z,1013.39
2017-12-17T05:56:35.584Z,1013.42
2017-12-17T05:57:35.561Z,1013.41
2017-12-17T05:58:35.534Z,1013.42
2017-12-17T05:59:35.514Z,1013.39
2017-12-17T06:00:35.487Z,1013.43
2017-12-17T06:01:35.476Z,1013.44
2017-12-17T06:02:35.434Z,1013.44
2017-12-17T06:03:35.408Z,1013.45
2017-12-17T06:04:35.559Z,1013.45
2017-12-17T06:05:35.363Z,1013.46
2017-12-17T06:06:35.334Z,1013.51
2017-12-17T06:07:35.328Z,1013.51
2017-12-17T06:08:35.283Z,1013.50
2017-12-17T06:09:35.263Z,1013.52
2017-12-17T06:10:35.232Z,1013.51
2017-12-17T06:11:35.207Z,1013.50
2017-12-17T06:12:35.187Z,1013.51
2017-12-17T06:13:35.164Z,1013.51
2017-12-17T06:14:35.134Z,1013.50
2017-12-17T06:15:35.264Z,1013.57
2017-12-17T06:16:35.085Z,1013.55
2017-12-17T06:17:35.063Z,1013.60
2017-12-17T06:18:35.121Z,1013.59
2017-12-17T06:19:35.008Z,1013.59
2017-12-17T06:20:34.977Z,1013.64
2017-12-17T06:21:34.964Z,1013.64
2017-12-17T06:22:34.933Z,1013.66
2017-12-17T06:23:34.920Z,1013.65
2017-12-17T06:24:34.899Z,1013.68
2017-12-17T06:25:34.866Z,1013.65
2017-12-17T06:26:34.832Z,1013.70
2017-12-17T06:27:34.817Z,1013.73
2017-12-17T06:28:34.781Z,1013.75
2017-12-17T06:29:34.758Z,1013.70
2017-12-17T06:30:34.730Z,1013.70
2017-12-17T06:31:34.706Z,1013.72
2017-12-17T06:32:34.681Z,1013.70
2017-12-17T06:33:34.656Z,1013.74
2017-12-17T06:34:34.629Z,1013.71
2017-12-17T06:35:34.602Z,1013.74
2017-12-17T06:36:34.580Z,1013.74
2017-12-17T06:37:34.551Z,1013.75
2017-12-17T06:38:34.528Z,1013.77
2017-12-17T06:39:34.501Z,1013.79
2017-12-17T06:40:34.525Z,1013.81
2017-12-17T06:41:34.461Z,1013.87
2017-12-17T06:42:34.425Z,1013.85
2017-12-17T06:43:34.458Z,1013.87
2017-12-17T06:44:34.380Z,1013.90
2017-12-17T06:45:34.350Z,1013.91
2017-12-17T06:46:34.351Z,1013.89
2017-12-17T06:47:34.298Z,1013.89
2017-12-17T06:48:34.274Z,1013.96
2017-12-17T06:49:34.249Z,1013.93
2017-12-17T06:50:34.223Z,1013.95
2017-12-17T06:51:34.197Z,1013.94
2017-12-17T06:52:34.169Z,1013.96
2017-12-17T06:53:34.147Z,1013.95
2017-12-17T06:54:34.123Z,1013.97
2017-12-17T06:55:34.097Z,1013.97
2017-12-17T06:56:34.068Z,1014.00
2017-12-17T06:57:34.041Z,1013.97
2017-12-17T06:58:34.023Z,1013.98
2017-12-17T06:59:33.989Z,1013.99
2017-12-17T07:00:33.966Z,1013.99
2017-12-17T07:01:33.955Z,1013.97
2017-12-17T07:02:33.915Z,1014.01
2017-12-17T07:03:33.888Z,1013.97
2017-12-17T07:04:33.874Z,1014.06
2017-12-17T07:05:33.847Z,1014.04
2017-12-17T07:06:33.816Z,1014.04
2017-12-17T07:07:33.795Z,1014.09
2017-12-17T07:08:33.773Z,1014.12
2017-12-17T07:09:33.740Z,1014.10
2017-12-17T07:10:33.718Z,1014.10
2017-12-17T07:11:33.685Z,1014.11
2017-12-17T07:12:33.668Z,1014.12
2017-12-17T07:13:33.641Z,1014.11
2017-12-17T07:14:33.610Z,1014.14
2017-12-17T07:15:33.584Z,1014.16
2017-12-17T07:16:33.562Z,1014.18
2017-12-17T07:17:33.541Z,1014.22
2017-12-17T07:18:33.521Z,1014.22
2017-12-17T07:19:33.490Z,1014.23
2017-12-17T07:20:33.453Z,1014.23
2017-12-17T07:21:33.434Z,1014.28
2017-12-17T07:22:33.405Z,1014.29
2017-12-17T07:23:33.378Z,1014.33
2017-12-17T07:24:33.353Z,1014.31
2017-12-17T07:25:33.325Z,1014.38
2017-12-17T07:26:33.307Z,1014.34
2017-12-17T07:27:33.281Z,1014.36
2017-12-17T07:28:33.263Z,1014.37
2017-12-17T07:29:33.225Z,1014.42
2017-12-17T07:30:33.198Z,1014.42
2017-12-17T07:31:33.172Z,1014.39
2017-12-17T07:32:33.147Z,1014.41
2017-12-17T07:33:33.123Z,1014.42
2017-12-17T07:34:33.097Z,1014.42
2017-12-17T07:35:33.073Z,1014.41
2017-12-17T07:36:33.043Z,1014.40
2017-12-17T07:37:33.020Z,1014.49
2017-12-17T07:38:32.993Z,1014.41
2017-12-17T07:39:32.966Z,1014.45
2017-12-17T07:40:32.941Z,1014.47
2017-12-17T07:41:33.072Z,1014.48
2017-12-17T07:42:32.898Z,1014.51
2017-12-17T07:43:32.864Z,1014.53
2017-12-17T07:44:32.938Z,1014.51
2017-12-17T07:45:32.816Z,1014.55
2017-12-17T07:46:32.789Z,1014.53
2017-12-17T07:47:32.761Z,1014.52
2017-12-17T07:48:32.743Z,1014.52
2017-12-17T07:49:32.714Z,1014.56
2017-12-17T07:50:32.689Z,1014.61
2017-12-17T07:51:32.662Z,1014.61
2017-12-17T07:52:32.646Z,1014.60
2017-12-17T07:53:32.613Z,1014.63
2017-12-17T07:54:32.583Z,1014.68
2017-12-17T07:55:32.663Z,1014.63
2017-12-17T07:56:32.534Z,1014.66
2017-12-17T07:57:32.507Z,1014.71
2017-12-17T07:58:32.540Z,1014.75
2017-12-17T07:59:32.457Z,1014.74
2017-12-17T08:00:32.434Z,1014.81
2017-12-17T08:01:32.419Z,1014.80
2017-12-17T08:02:32.381Z,1014.75
2017-12-17T08:03:32.356Z,1014.82
2017-12-17T08:04:32.326Z,1014.81
2017-12-17T08:05:32.309Z,1014.82
2017-12-17T08:06:32.280Z,1014.92
2017-12-17T08:07:32.263Z,1014.97
2017-12-17T08:08:32.226Z,1014.94
2017-12-17T08:09:32.209Z,1014.98
2017-12-17T08:10:32.177Z,1014.99
2017-12-17T08:11:32.150Z,1015.03
2017-12-17T08:12:32.135Z,1015.02
2017-12-17T08:13:32.101Z,1015.04
2017-12-17T08:14:32.085Z,1015.03
2017-12-17T08:15:32.054Z,1015.03
2017-12-17T08:16:32.025Z,1015.04
2017-12-17T08:17:32.013Z,1015.09
2017-12-17T08:18:31.975Z,1015.12
2017-12-17T08:19:31.947Z,1015.12
2017-12-17T08:20:32.002Z,1015.12
2017-12-17T08:21:31.900Z,1015.14
2017-12-17T08:22:31.876Z,1015.15
2017-12-17T08:23:31.876Z,1015.18
2017-12-17T08:24:31.823Z,1015.15
2017-12-17T08:25:31.799Z,1015.22
2017-12-17T08:26:31.774Z,1015.17
2017-12-17T08:27:31.748Z,1015.20
2017-12-17T08:28:31.724Z,1015.24
2017-12-17T08:29:31.697Z,1015.22
2017-12-17T08:30:31.673Z,1015.26
2017-12-17T08:31:31.646Z,1015.24
2017-12-17T08:32:31.623Z,1015.28
2017-12-17T08:33:31.597Z,1015.34
2017-12-17T08:34:31.572Z,1015.35
2017-12-17T08:35:31.559Z,1015.38
2017-12-17T08:36:31.541Z,1015.37
2017-12-17T08:37:31.497Z,1015.37
2017-12-17T08:38:31.482Z,1015.36
2017-12-17T08:39:31.445Z,1015.36
2017-12-17T08:40:31.430Z,1015.40
2017-12-17T08:41:31.409Z,1015.42
2017-12-17T08:42:31.372Z,1015.39
2017-12-17T08:43:31.351Z,1015.42
2017-12-17T08:44:31.322Z,1015.45
2017-12-17T08:45:31.296Z,1015.52
2017-12-17T08:46:31.272Z,1015.50
2017-12-17T08:47:31.251Z,1015.48
2017-12-17T08:48:31.222Z,1015.51
2017-12-17T08:49:31.207Z,1015.54
2017-12-17T08:50:31.173Z,1015.53
2017-12-17T08:51:31.152Z,1015.55
2017-12-17T08:52:31.130Z,1015.55
2017-12-17T08:53:31.235Z,1015.56
2017-12-17T08:54:31.081Z,1015.59
2017-12-17T08:55:31.050Z,1015.60
2017-12-17T08:56:31.036Z,1015.62
2017-12-17T08:57:31.000Z,1015.63
2017-12-17T08:58:30.974Z,1015.62
2017-12-17T08:59:30.952Z,1015.68
2017-12-17T09:00:30.931Z,1015.72
2017-12-17T09:01:30.901Z,1015.70
2017-12-17T09:02:30.879Z,1015.70
2017-12-17T09:03:30.852Z,1015.72
2017-12-17T09:04:30.830Z,1015.77
2017-12-17T09:05:30.804Z,1015.80
2017-12-17T09:06:30.778Z,1015.82
2017-12-17T09:07:30.753Z,1015.87
2017-12-17T09:08:30.730Z,1015.90
2017-12-17T09:09:30.709Z,1015.90
2017-12-17T09:10:30.682Z,1015.95
2017-12-17T09:11:30.657Z,1015.94
2017-12-17T09:12:30.634Z,1015.95
2017-12-17T09:13:30.607Z,1015.98
2017-12-17T09:14:30.583Z,1016.01
2017-12-17T09:15:30.574Z,1016.02
2017-12-17T09:16:30.536Z,1016.06
2017-12-17T09:17:30.514Z,1016.02
2017-12-17T09:18:30.502Z,1016.04
2017-12-17T09:19:30.461Z,1016.08
2017-12-17T09:20:30.439Z,1016.09
2017-12-17T09:21:30.516Z,1016.07
2017-12-17T09:22:30.389Z,1016.11
2017-12-17T09:23:30.368Z,1016.16
2017-12-17T09:24:30.359Z,1016.16
2017-12-17T09:25:30.329Z,1016.13
2017-12-17T09:26:30.292Z,1016.14
2017-12-17T09:27:30.278Z,1016.19
2017-12-17T09:28:30.247Z,1016.14
2017-12-17T09:29:30.229Z,1016.17
2017-12-17T09:30:30.195Z,1016.16
2017-12-17T09:31:30.179Z,1016.18
2017-12-17T09:32:30.186Z,1016.23
2017-12-17T09:33:30.126Z,1016.27
2017-12-17T09:34:30.103Z,1016.31
2017-12-17T09:35:30.078Z,1016.33
2017-12-17T09:36:30.058Z,1016.35
2017-12-17T09:37:30.031Z,1016.33
2017-12-17T09:38:30.006Z,1016.36
2017-12-17T09:39:29.978Z,1016.41
2017-12-17T09:40:29.968Z,1016.39
2017-12-17T09:41:29.943Z,1016.41
2017-12-17T09:42:29.914Z,1016.39
2017-12-17T09:43:29.891Z,1016.36
2017-12-17T09:44:29.887Z,1016.37
2017-12-17T09:45:29.842Z,1016.33
2017-12-17T09:46:29.813Z,1016.34
2017-12-17T09:47:29.788Z,1016.35
2017-12-17T09:48:29.772Z,1016.35
2017-12-17T09:49:29.756Z,1016.35
2017-12-17T09:50:29.716Z,1016.32
2017-12-17T09:51:29.695Z,1016.33
2017-12-17T09:52:29.677Z,1016.31
2017-12-17T09:53:29.646Z,1016.33
2017-12-17T09:54:29.663Z,1016.31
2017-12-17T09:55:29.599Z,1016.38
2017-12-17T09:56:29.574Z,1016.40
2017-12-17T09:57:29.637Z,1016.38
2017-12-17T09:58:29.524Z,1016.39
2017-12-17T09:59:29.500Z,1016.43
2017-12-17T10:00:29.485Z,1016.45
2017-12-17T10:01:29.455Z,1016.42
2017-12-17T10:02:29.443Z,1016.44
2017-12-17T10:03:29.410Z,1016.50
2017-12-17T10:04:29.383Z,1016.49
2017-12-17T10:05:29.368Z,1016.52
2017-12-17T10:06:29.337Z,1016.54
2017-12-17T10:07:29.320Z,1016.53
2017-12-17T10:08:29.289Z,1016.51
2017-12-17T10:09:29.264Z,1016.51
2017-12-17T10:10:29.239Z,1016.53
2017-12-17T10:11:29.219Z,1016.53
2017-12-17T10:12:29.198Z,1016.60
2017-12-17T10:13:29.174Z,1016.57
2017-12-17T10:14:29.150Z,1016.57
2017-12-17T10:15:29.125Z,1016.61
2017-12-17T10:16:29.101Z,1016.57
2017-12-17T10:17:29.083Z,1016.50
2017-12-17T10:18:29.055Z,1016.51
2017-12-17T10:19:29.081Z,1016.54
2017-12-17T10:20:29.008Z,1016.51
2017-12-17T10:21:28.999Z,1016.53
2017-12-17T10:22:28.962Z,1016.51
2017-12-17T10:23:28.943Z,1016.52
2017-12-17T10:24:28.920Z,1016.50
2017-12-17T10:25:28.897Z,1016.49
2017-12-17T10:26:28.868Z,1016.46
2017-12-17T10:27:28.854Z,1016.48
2017-12-17T10:28:28.820Z,1016.50
2017-12-17T10:29:28.798Z,1016.48
2017-12-17T10:30:28.836Z,1016.49
2017-12-17T10:31:28.758Z,1016.47
2017-12-17T10:32:28.731Z,1016.43
2017-12-17T10:33:28.728Z,1016.40
2017-12-17T10:34:28.680Z,1016.44
2017-12-17T10:35:28.666Z,1016.43
2017-12-17T10:36:28.640Z,1016.43
2017-12-17T10:37:28.620Z,1016.41
2017-12-17T10:38:28.606Z,1016.41
2017-12-17T10:39:28.575Z,1016.41
2017-12-17T10:40:28.546Z,1016.40
2017-12-17T10:41:28.527Z,1016.39
2017-12-17T10:42:28.504Z,1016.42
2017-12-17T10:43:28.475Z,1016.40
2017-12-17T10:44:28.454Z,1016.42
2017-12-17T10:45:28.430Z,1016.42
2017-12-17T10:46:28.407Z,1016.40
2017-12-17T10:47:28.384Z,1016.43
2017-12-17T10:48:28.370Z,1016.37
2017-12-17T10:49:28.338Z,1016.43
2017-12-17T10:50:28.316Z,1016.38
2017-12-17T10:51:28.303Z,1016.38
2017-12-17T10:52:28.346Z,1016.38
2017-12-17T10:53:28.254Z,1016.37
2017-12-17T10:54:28.227Z,1016.36
2017-12-17T10:55:28.254Z,1016.34
2017-12-17T10:56:28.183Z,1016.36
2017-12-17T10:57:28.170Z,1016.32
2017-12-17T10:58:28.134Z,1016.38
2017-12-17T10:59:28.120Z,1016.36
2017-12-17T11:00:28.100Z,1016.33
2017-12-17T11:01:28.097Z,1016.32
2017-12-17T11:02:28.045Z,1016.35
2017-12-17T11:03:28.031Z,1016.33
2017-12-17T11:04:28.002Z,1016.35
2017-12-17T11:05:27.976Z,1016.36
2017-12-17T11:06:27.967Z,1016.28
2017-12-17T11:07:27.945Z,1016.30
2017-12-17T11:08:27.913Z,1016.33
2017-12-17T11:09:27.893Z,1016.36
2017-12-17T11:10:27.864Z,1016.38
2017-12-17T11:11:27.851Z,1016.35
2017-12-17T11:12:27.829Z,1016.38
2017-12-17T11:13:27.796Z,1016.33
2017-12-17T11:14:27.779Z,1016.35
2017-12-17T11:15:27.749Z,1016.35
2017-12-17T11:16:27.750Z,1016.35
2017-12-17T11:17:27.704Z,1016.31
2017-12-17T11:18:27.693Z,1016.31
2017-12-17T11:19:27.667Z,1016.27
2017-12-17T11:20:27.650Z,1016.33
2017-12-17T11:21:27.622Z,1016.33
2017-12-17T11:22:27.595Z,1016.32
2017-12-17T11:23:27.579Z,1016.35
2017-12-17T11:24:27.562Z,1016.36
2017-12-17T11:25:27.648Z,1016.39
2017-12-17T11:26:27.503Z,1016.42
2017-12-17T11:27:27.494Z,1016.42
2017-12-17T11:28:27.520Z,1016.34
2017-12-17T11:29:27.439Z,1016.37
2017-12-17T11:30:27.420Z,1016.33
2017-12-17T11:31:27.393Z,1016.29
2017-12-17T11:32:27.372Z,1016.34
2017-12-17T11:33:27.360Z,1016.30
2017-12-17T11:34:27.329Z,1016.33
2017-12-17T11:35:27.310Z,1016.32
2017-12-17T11:36:27.280Z,1016.37
2017-12-17T11:37:27.264Z,1016.38
2017-12-17T11:38:27.247Z,1016.41
2017-12-17T11:39:27.219Z,1016.38
2017-12-17T11:40:27.198Z,1016.34
2017-12-17T11:41:27.170Z,1016.31
2017-12-17T11:42:27.154Z,1016.35
2017-12-17T11:43:27.166Z,1016.30
2017-12-17T11:44:27.110Z,1016.29
2017-12-17T11:45:27.093Z,1016.25
2017-12-17T11:46:27.066Z,1016.27
2017-12-17T11:47:27.193Z,1016.29
2017-12-17T11:48:27.018Z,1016.30
2017-12-17T11:49:26.998Z,1016.29
2017-12-17T11:50:27.078Z,1016.33
2017-12-17T11:51:26.965Z,1016.33
2017-12-17T11:52:26.950Z,1016.34
2017-12-17T11:53:26.923Z,1016.34
2017-12-17T11:54:26.898Z,1016.29
2017-12-17T11:55:27.210Z,1016.38
2017-12-17T11:56:26.847Z,1016.36
2017-12-17T11:57:26.837Z,1016.42
2017-12-17T11:58:26.882Z,1016.39
2017-12-17T11:59:26.785Z,1016.42
2017-12-17T12:00:26.772Z,1016.38
2017-12-17T12:01:26.748Z,1016.39
2017-12-17T12:02:26.720Z,1016.42
2017-12-17T12:03:26.713Z,1016.42
2017-12-17T12:04:26.692Z,1016.44
2017-12-17T12:05:26.675Z,1016.45